メインページ
METAR-TAF:

METAR-TAF

空港 :

ナヒチェヴァン, アゼルバイジャン

緯度: 39-11-19N, 経度: 045-27-30E, 海抜: 873m

現時点の気象観測

当レポートは14分前の18:00(UTC)に作成
北/北東の風 10kt
気温 1°C
湿度 59%
気圧 1028 hPa
視程10km以上

METAR: UBBN 171800Z 02010KT 9999 NSC 01/M06 Q1028 R14R/CLRD// NOSIG RMK MT OP QFE695

時間: 22:14 (18:14 UTC)

予報

当レポートは1時間11分前の17:03(UTC)に作成
予報は17日の 18時(UTC)から 18日の 18時(UTC)まで有効
変向風 4kt
視程10km以上
高度5000ftの雲はほとんどない
高度10000ftの雲は散在している
17日の 18時(UTC)から 18日の 04時(UTC)まで一時的に
北/北東の風 8kt
18日の 06時(UTC)から 18日の 12時(UTC)まで一時的に
西/南西の風 8kt

TAF: UBBN 171703Z 1718/1818 VRB04KT 9999 FEW050 SCT100 TX10/1812Z TNM03/1802Z TEMPO 1718/1804 02008KT TEMPO 1806/1812 24008KT

4,000以上の空港の気象観測と天気予報(METAR報とTAF報)

利用可能な観測所は地図上に黄色い丸と赤い丸で示す。

丸の上にカーソルを重ねると観測所名を参照できる。

次にクリックすると気象観測と天気予報を参照できる。

マップの切り替え:黒色「×」印の緑ボタンをクリックして拡大、「-」印の緑ボタンをクリックして縮小、緑色の三角印をクリックして隣りの地図に切り替え


METAR-TAF: